createdAt,value
2023-06-17T00:02:18.637Z,10.13
2023-06-17T00:04:45.555Z,10.40
2023-06-17T00:07:12.445Z,10.50
2023-06-17T00:09:39.419Z,10.20
2023-06-17T00:12:06.777Z,9.40
2023-06-17T00:14:33.693Z,9.95
2023-06-17T00:17:00.595Z,10.30
2023-06-17T00:19:28.182Z,10.75
2023-06-17T00:21:55.272Z,9.77
2023-06-17T00:24:22.624Z,9.88
2023-06-17T00:26:50.328Z,10.30
2023-06-17T00:29:17.227Z,10.45
2023-06-17T00:31:44.333Z,10.53
2023-06-17T00:34:11.241Z,10.50
2023-06-17T00:36:38.150Z,10.98
2023-06-17T00:39:05.082Z,10.70
2023-06-17T00:41:31.965Z,9.90
2023-06-17T00:43:58.890Z,11.13
2023-06-17T00:46:42.632Z,10.60
2023-06-17T00:49:10.894Z,10.32
2023-06-17T00:51:38.441Z,9.93
2023-06-17T00:54:05.458Z,10.10
2023-06-17T00:56:33.583Z,10.30
2023-06-17T00:59:02.717Z,10.20
2023-06-17T01:01:29.652Z,11.10
2023-06-17T01:03:58.001Z,10.45
2023-06-17T01:06:33.926Z,10.60
2023-06-17T01:09:06.477Z,10.70
2023-06-17T01:11:34.825Z,11.00
2023-06-17T01:14:02.352Z,10.65
2023-06-17T01:16:31.885Z,10.93
2023-06-17T01:18:59.047Z,11.70
2023-06-17T01:21:26.175Z,11.05
2023-06-17T01:23:54.557Z,12.20
2023-06-17T01:26:21.815Z,11.20
2023-06-17T01:28:48.814Z,11.75
2023-06-17T01:31:15.775Z,11.50
2023-06-17T01:33:45.789Z,11.65
2023-06-17T01:36:28.173Z,11.10
2023-06-17T01:39:05.587Z,10.88
2023-06-17T01:41:45.056Z,11.38
2023-06-17T01:44:13.374Z,11.90
2023-06-17T01:46:41.864Z,11.43
2023-06-17T01:49:08.781Z,11.90
2023-06-17T01:51:35.704Z,11.07
2023-06-17T01:54:02.738Z,11.75
2023-06-17T01:56:30.098Z,12.45
2023-06-17T01:58:57.079Z,11.65
2023-06-17T02:01:23.984Z,12.05
2023-06-17T02:03:51.152Z,12.00
2023-06-17T02:06:18.245Z,12.23
2023-06-17T02:08:45.185Z,11.57
2023-06-17T02:11:12.639Z,11.77
2023-06-17T02:13:39.509Z,11.40
2023-06-17T02:16:06.420Z,12.10
2023-06-17T02:18:33.543Z,11.38
2023-06-17T02:21:01.949Z,11.30
2023-06-17T02:23:28.940Z,11.52
2023-06-17T02:25:55.815Z,12.10
2023-06-17T02:28:22.785Z,12.48
2023-06-17T02:30:49.709Z,11.32
2023-06-17T02:33:16.651Z,11.70
2023-06-17T02:35:43.614Z,11.52
2023-06-17T02:38:10.535Z,11.98
2023-06-17T02:40:37.484Z,12.38
2023-06-17T02:43:04.349Z,12.95
2023-06-17T02:45:31.290Z,13.27
2023-06-17T02:47:58.219Z,12.80
2023-06-17T02:50:26.761Z,13.38
2023-06-17T02:52:53.693Z,13.80
2023-06-17T02:55:20.558Z,13.40
2023-06-17T02:57:47.484Z,14.52
2023-06-17T03:00:14.490Z,14.70
2023-06-17T03:02:41.512Z,15.15
2023-06-17T03:05:08.728Z,14.43
2023-06-17T03:07:35.651Z,15.00
2023-06-17T03:10:03.215Z,14.93
2023-06-17T03:12:30.166Z,14.65
2023-06-17T03:14:57.056Z,13.80
2023-06-17T03:17:24.480Z,14.45
2023-06-17T03:19:51.780Z,13.90
2023-06-17T03:22:18.710Z,14.17
2023-06-17T03:24:45.613Z,13.80
2023-06-17T03:27:12.509Z,13.90
2023-06-17T03:29:39.449Z,14.23
2023-06-17T03:32:06.881Z,14.85
2023-06-17T03:34:34.372Z,16.33
2023-06-17T03:37:01.297Z,14.93
2023-06-17T03:39:28.198Z,16.08
2023-06-17T03:41:55.058Z,20.52
2023-06-17T03:44:21.938Z,17.02
2023-06-17T03:46:48.840Z,15.35
2023-06-17T03:49:15.731Z,16.13
2023-06-17T03:51:42.624Z,15.10
2023-06-17T03:54:09.587Z,14.80
2023-06-17T03:56:36.491Z,14.60
2023-06-17T03:59:03.486Z,16.63
2023-06-17T04:01:30.427Z,16.55
2023-06-17T04:03:57.478Z,13.80
2023-06-17T04:06:24.547Z,15.10
2023-06-17T04:08:51.423Z,14.20
2023-06-17T04:11:18.346Z,18.48
2023-06-17T04:13:45.249Z,23.25
2023-06-17T04:16:12.170Z,24.42
2023-06-17T04:18:41.329Z,22.92
2023-06-17T04:21:08.197Z,26.33
2023-06-17T04:23:35.104Z,28.63
2023-06-17T04:26:02.116Z,20.40
2023-06-17T04:28:29.058Z,17.40
2023-06-17T04:30:55.929Z,15.70
2023-06-17T04:33:22.872Z,15.93
2023-06-17T04:35:49.739Z,16.52
2023-06-17T04:38:16.665Z,16.85
2023-06-17T04:40:43.592Z,20.08
2023-06-17T04:43:10.561Z,21.02
2023-06-17T04:45:37.482Z,19.20
2023-06-17T04:48:04.771Z,21.08
2023-06-17T04:50:31.710Z,16.95
2023-06-17T04:52:58.808Z,17.60
2023-06-17T04:55:25.667Z,20.17
2023-06-17T04:57:52.585Z,21.30
2023-06-17T05:00:22.225Z,21.65
2023-06-17T05:02:49.474Z,24.85
2023-06-17T05:05:16.433Z,23.17
2023-06-17T05:07:43.398Z,23.83
2023-06-17T05:10:10.646Z,22.70
2023-06-17T05:12:37.540Z,22.73
2023-06-17T05:15:04.847Z,25.70
2023-06-17T05:17:31.805Z,21.13
2023-06-17T05:19:58.754Z,19.35
2023-06-17T05:22:25.693Z,18.80
2023-06-17T05:24:52.583Z,19.20
2023-06-17T05:27:19.550Z,19.37
2023-06-17T05:29:46.597Z,18.52
2023-06-17T05:32:13.486Z,17.02
2023-06-17T05:34:40.419Z,20.97
2023-06-17T05:37:07.322Z,20.10
2023-06-17T05:39:34.192Z,21.25
2023-06-17T05:42:01.082Z,18.85
2023-06-17T05:44:27.934Z,17.77
2023-06-17T05:46:54.859Z,18.75
2023-06-17T05:49:21.770Z,17.50
2023-06-17T05:51:48.741Z,18.17
2023-06-17T05:54:15.650Z,17.95
2023-06-17T05:56:42.611Z,17.90
2023-06-17T05:59:09.516Z,19.00
2023-06-17T06:01:36.514Z,17.50
2023-06-17T06:04:03.592Z,19.35
2023-06-17T06:06:33.731Z,16.63
2023-06-17T06:09:01.746Z,16.00
2023-06-17T06:11:28.692Z,16.90
2023-06-17T06:13:55.582Z,15.95
2023-06-17T06:16:22.537Z,17.27
2023-06-17T06:18:49.477Z,17.98
2023-06-17T06:21:16.388Z,16.50
2023-06-17T06:23:43.355Z,15.95
2023-06-17T06:26:10.288Z,16.08
2023-06-17T06:28:37.177Z,15.68
2023-06-17T06:31:04.995Z,15.30
2023-06-17T06:33:31.950Z,16.57
2023-06-17T06:35:58.862Z,23.45
2023-06-17T06:38:25.784Z,17.02
2023-06-17T06:40:52.700Z,16.83
2023-06-17T06:43:20.176Z,16.30
2023-06-17T06:45:47.043Z,15.65
2023-06-17T06:48:14.313Z,16.05
2023-06-17T06:50:41.226Z,17.30
2023-06-17T06:53:08.177Z,16.27
2023-06-17T06:55:35.086Z,14.70
2023-06-17T06:58:02.029Z,15.55
2023-06-17T07:00:29.060Z,13.40
2023-06-17T07:02:55.986Z,13.33
2023-06-17T07:05:23.020Z,12.52
2023-06-17T07:07:50.031Z,12.65
2023-06-17T07:10:16.986Z,10.20
2023-06-17T07:12:44.482Z,11.07
2023-06-17T07:15:11.720Z,12.43
2023-06-17T07:17:38.969Z,11.90
2023-06-17T07:20:06.548Z,9.55
2023-06-17T07:22:33.566Z,10.25
2023-06-17T07:25:00.741Z,8.02
2023-06-17T07:27:27.639Z,9.00
2023-06-17T07:29:54.541Z,8.70
2023-06-17T07:32:21.442Z,8.75
2023-06-17T07:34:48.388Z,7.50
2023-06-17T07:37:15.706Z,6.47
2023-06-17T07:39:42.614Z,7.10
2023-06-17T07:42:09.686Z,7.10
2023-06-17T07:44:36.573Z,5.90
2023-06-17T07:47:03.649Z,6.78
2023-06-17T07:49:30.623Z,6.68
2023-06-17T07:51:57.519Z,6.68
2023-06-17T07:54:24.415Z,6.75
2023-06-17T07:56:51.315Z,6.90
2023-06-17T07:59:18.186Z,6.95
2023-06-17T08:01:45.144Z,6.17
2023-06-17T08:04:12.146Z,6.50
2023-06-17T08:06:39.165Z,6.25
2023-06-17T08:09:06.088Z,5.90
2023-06-17T08:11:32.997Z,6.40
2023-06-17T08:13:59.965Z,6.10
2023-06-17T08:16:26.915Z,5.80
2023-06-17T08:18:53.894Z,6.00
2023-06-17T08:21:20.787Z,6.00
2023-06-17T08:23:47.754Z,6.20
2023-06-17T08:26:14.809Z,5.50
2023-06-17T08:28:41.743Z,6.07
2023-06-17T08:31:08.630Z,6.20
2023-06-17T08:33:35.518Z,5.60
2023-06-17T08:36:02.465Z,6.80
2023-06-17T08:38:29.352Z,5.90
2023-06-17T08:40:56.345Z,6.30
2023-06-17T08:43:25.483Z,6.60
2023-06-17T08:45:53.588Z,6.40
2023-06-17T08:48:21.166Z,5.77
2023-06-17T08:50:48.989Z,6.00
2023-06-17T08:53:16.273Z,6.15
2023-06-17T08:55:43.923Z,5.80
2023-06-17T08:58:11.805Z,5.30
2023-06-17T09:00:38.740Z,5.07
2023-06-17T09:03:08.327Z,6.00
2023-06-17T09:05:35.926Z,5.68
2023-06-17T09:08:02.929Z,5.47
2023-06-17T09:10:29.881Z,5.10
2023-06-17T09:13:00.276Z,4.10
2023-06-17T09:15:27.234Z,4.30
2023-06-17T09:17:54.153Z,4.00
2023-06-17T09:20:21.693Z,3.60
2023-06-17T09:22:49.304Z,3.60
2023-06-17T09:25:17.729Z,3.33
2023-06-17T09:30:23.341Z,3.30
2023-06-17T09:32:51.376Z,3.80
2023-06-17T09:35:18.952Z,3.40
2023-06-17T09:38:02.376Z,3.30
2023-06-17T09:40:33.697Z,2.90
2023-06-17T09:43:16.529Z,2.90
2023-06-17T09:45:48.121Z,3.10
2023-06-17T09:48:18.961Z,3.10
2023-06-17T09:50:46.050Z,3.30
2023-06-17T09:53:14.522Z,3.00
2023-06-17T09:55:42.144Z,2.83
2023-06-17T09:58:10.090Z,2.80
2023-06-17T10:00:37.402Z,2.90
2023-06-17T10:03:04.364Z,2.70
2023-06-17T10:05:31.375Z,2.90
2023-06-17T10:07:58.817Z,3.05
2023-06-17T10:10:26.314Z,3.80
2023-06-17T10:12:57.818Z,3.10
2023-06-17T10:15:26.232Z,4.68
2023-06-17T10:17:55.431Z,4.70
2023-06-17T10:20:23.970Z,5.88
2023-06-17T10:22:52.728Z,4.40
2023-06-17T10:25:19.685Z,5.03
2023-06-17T10:27:47.095Z,4.90
2023-06-17T10:30:27.795Z,5.60
2023-06-17T10:33:04.240Z,7.50
2023-06-17T10:35:38.609Z,7.30
2023-06-17T10:38:05.769Z,5.32
2023-06-17T10:40:32.695Z,5.70
2023-06-17T10:43:17.452Z,4.68
2023-06-17T10:45:56.958Z,5.05
2023-06-17T10:48:33.644Z,4.85
2023-06-17T10:51:11.333Z,5.20
2023-06-17T10:53:38.939Z,4.13
2023-06-17T10:56:07.353Z,5.33
2023-06-17T10:58:38.920Z,4.37
2023-06-17T11:01:10.515Z,4.30
2023-06-17T11:03:37.529Z,4.25
2023-06-17T11:06:06.931Z,3.70
2023-06-17T11:08:35.591Z,3.90
2023-06-17T11:11:10.456Z,3.80
2023-06-17T11:13:42.411Z,3.75
2023-06-17T11:16:10.557Z,3.63
2023-06-17T11:18:39.175Z,3.63
2023-06-17T11:21:07.075Z,3.60
2023-06-17T11:23:34.721Z,3.70
2023-06-17T11:26:02.544Z,3.88
2023-06-17T11:28:31.689Z,4.20
2023-06-17T11:31:00.418Z,5.40
2023-06-17T11:33:28.293Z,4.23
2023-06-17T11:35:55.978Z,3.85
2023-06-17T11:38:23.241Z,3.80
2023-06-17T11:40:57.538Z,3.20
2023-06-17T11:43:25.651Z,3.28
2023-06-17T11:45:57.395Z,2.80
2023-06-17T11:48:34.044Z,2.60
2023-06-17T11:51:01.208Z,2.58
2023-06-17T11:53:40.143Z,2.40
2023-06-17T11:56:08.661Z,2.60
2023-06-17T11:58:41.440Z,2.38
2023-06-17T12:01:09.667Z,2.30
2023-06-17T12:03:37.271Z,2.28
2023-06-17T12:06:05.056Z,3.08
2023-06-17T12:08:36.233Z,3.75
2023-06-17T12:11:42.326Z,3.58
2023-06-17T12:14:13.669Z,2.90
2023-06-17T12:16:41.334Z,3.10
2023-06-17T12:19:20.515Z,2.85
2023-06-17T12:21:47.445Z,2.40
2023-06-17T12:24:16.415Z,2.60
2023-06-17T12:26:43.533Z,2.42
2023-06-17T12:29:20.482Z,2.38
2023-06-17T12:31:52.745Z,2.38
2023-06-17T12:34:19.667Z,2.40
2023-06-17T12:36:46.573Z,2.20
2023-06-17T12:39:13.512Z,2.38
2023-06-17T12:41:40.394Z,2.50
2023-06-17T12:44:07.259Z,2.30
2023-06-17T12:46:34.858Z,2.20
2023-06-17T12:49:01.899Z,2.30
2023-06-17T12:51:28.780Z,2.58
2023-06-17T12:53:55.711Z,2.10
2023-06-17T12:56:22.632Z,2.30
2023-06-17T12:58:49.558Z,2.30
2023-06-17T13:01:16.547Z,2.30
2023-06-17T13:03:43.723Z,2.22
2023-06-17T13:06:10.638Z,2.30
2023-06-17T13:08:37.645Z,2.38
2023-06-17T13:11:04.561Z,3.70
2023-06-17T13:13:31.461Z,3.50
2023-06-17T13:15:58.463Z,2.70
2023-06-17T13:18:25.395Z,2.80
2023-06-17T13:20:52.352Z,4.33
2023-06-17T13:23:19.250Z,4.45
2023-06-17T13:25:46.202Z,2.30
2023-06-17T13:28:13.439Z,2.00
2023-06-17T13:30:40.758Z,2.00
2023-06-17T13:33:08.017Z,2.00
2023-06-17T13:35:35.052Z,2.03
2023-06-17T13:38:02.066Z,1.73
2023-06-17T13:40:28.992Z,1.70
2023-06-17T13:42:56.228Z,1.92
2023-06-17T13:45:23.567Z,1.90
2023-06-17T13:47:50.692Z,2.10
2023-06-17T13:50:17.658Z,2.20
2023-06-17T13:52:44.546Z,1.90
2023-06-17T13:55:11.500Z,2.17
2023-06-17T13:57:38.462Z,1.90
2023-06-17T14:00:05.928Z,2.10
2023-06-17T14:02:32.872Z,1.90
2023-06-17T14:05:00.012Z,2.00
2023-06-17T14:07:26.965Z,2.10
2023-06-17T14:09:54.970Z,1.70
2023-06-17T14:12:21.980Z,1.90
2023-06-17T14:14:48.938Z,1.73
2023-06-17T14:17:16.002Z,1.60
2023-06-17T14:19:42.916Z,1.80
2023-06-17T14:22:09.785Z,1.90
2023-06-17T14:24:38.533Z,1.80
2023-06-17T14:27:25.919Z,1.80
2023-06-17T14:29:52.817Z,1.60
2023-06-17T14:32:19.864Z,1.90
2023-06-17T14:34:46.829Z,1.55
2023-06-17T14:37:13.914Z,1.63
2023-06-17T14:39:40.800Z,1.80
2023-06-17T14:42:07.881Z,2.30
2023-06-17T14:44:34.766Z,2.10
2023-06-17T14:47:01.670Z,1.90
2023-06-17T14:49:28.569Z,1.80
2023-06-17T14:51:55.437Z,1.60
2023-06-17T14:54:22.344Z,1.70
2023-06-17T14:56:49.308Z,1.57
2023-06-17T14:59:16.276Z,1.70
2023-06-17T15:01:43.246Z,2.53
2023-06-17T15:04:10.399Z,1.60
2023-06-17T15:06:37.333Z,1.70
2023-06-17T15:09:24.133Z,2.25
2023-06-17T15:11:51.079Z,1.63
2023-06-17T15:14:17.991Z,1.40
2023-06-17T15:16:44.962Z,1.50
2023-06-17T15:19:11.875Z,1.50
2023-06-17T15:21:38.790Z,1.50
2023-06-17T15:24:06.232Z,1.73
2023-06-17T15:26:33.473Z,1.50
2023-06-17T15:29:00.674Z,1.60
2023-06-17T15:31:27.579Z,1.55
2023-06-17T15:33:54.539Z,1.30
2023-06-17T15:36:21.422Z,1.45
2023-06-17T15:38:48.336Z,1.42
2023-06-17T15:41:15.205Z,1.60
2023-06-17T15:43:42.165Z,1.50
2023-06-17T15:46:09.194Z,1.30
2023-06-17T15:48:37.029Z,1.45
2023-06-17T15:51:04.530Z,1.38
2023-06-17T15:53:31.436Z,1.48
2023-06-17T15:55:58.359Z,1.40
2023-06-17T15:58:25.264Z,1.90
2023-06-17T16:00:52.348Z,1.40
2023-06-17T16:03:32.538Z,1.40
2023-06-17T16:06:00.312Z,1.30
2023-06-17T16:08:27.455Z,1.30
2023-06-17T16:10:54.687Z,1.50
2023-06-17T16:13:21.737Z,1.40
2023-06-17T16:15:48.613Z,1.30
2023-06-17T16:18:15.561Z,1.50
2023-06-17T16:20:42.446Z,1.20
2023-06-17T16:23:09.347Z,1.45
2023-06-17T16:25:49.991Z,1.30
2023-06-17T16:28:22.199Z,1.40
2023-06-17T16:30:49.073Z,1.20
2023-06-17T16:33:15.999Z,1.20
2023-06-17T16:35:42.901Z,1.30
2023-06-17T16:38:09.917Z,1.20
2023-06-17T16:40:36.803Z,1.20
2023-06-17T16:43:03.736Z,1.30
2023-06-17T16:45:30.678Z,1.20
2023-06-17T16:47:57.629Z,1.50
2023-06-17T16:50:24.790Z,1.40
2023-06-17T16:52:51.902Z,2.30
2023-06-17T16:55:18.849Z,1.90
2023-06-17T16:57:45.714Z,1.98
2023-06-17T17:00:13.037Z,1.60
2023-06-17T17:02:40.001Z,1.23
2023-06-17T17:05:07.447Z,1.30
2023-06-17T17:07:34.293Z,1.60
2023-06-17T17:10:01.268Z,1.30
2023-06-17T17:12:28.187Z,1.40
2023-06-17T17:14:55.122Z,1.50
2023-06-17T17:17:22.094Z,2.80
2023-06-17T17:19:49.022Z,3.10
2023-06-17T17:22:15.911Z,2.28
2023-06-17T17:24:42.833Z,1.60
2023-06-17T17:27:09.769Z,1.60
2023-06-17T17:29:36.695Z,1.70
2023-06-17T17:32:04.397Z,1.60
2023-06-17T17:34:31.280Z,1.50
2023-06-17T17:36:58.182Z,1.80
2023-06-17T17:39:25.098Z,1.80
2023-06-17T17:41:52.092Z,1.90
2023-06-17T17:44:18.984Z,1.73
2023-06-17T17:46:45.908Z,2.00
2023-06-17T17:49:12.949Z,5.60
2023-06-17T17:51:39.860Z,2.40
2023-06-17T17:54:06.754Z,4.53
2023-06-17T17:56:33.742Z,3.97
2023-06-17T17:59:00.657Z,5.90
2023-06-17T18:01:27.615Z,2.30
2023-06-17T18:03:54.551Z,2.05
2023-06-17T18:06:21.481Z,1.90
2023-06-17T18:08:48.366Z,1.90
2023-06-17T18:11:15.257Z,1.77
2023-06-17T18:13:42.155Z,1.60
2023-06-17T18:16:09.086Z,1.80
2023-06-17T18:18:36.074Z,1.90
2023-06-17T18:21:02.958Z,2.10
2023-06-17T18:23:29.913Z,1.88
2023-06-17T18:25:57.094Z,1.90
2023-06-17T18:28:24.158Z,2.10
2023-06-17T18:30:51.054Z,3.10
2023-06-17T18:33:17.978Z,5.70
2023-06-17T18:35:44.893Z,3.20
2023-06-17T18:38:11.861Z,2.40
2023-06-17T18:40:38.869Z,2.38
2023-06-17T18:43:07.618Z,2.22
2023-06-17T18:45:34.914Z,2.33
2023-06-17T18:48:01.898Z,2.10
2023-06-17T18:50:28.800Z,2.30
2023-06-17T18:52:55.729Z,2.50
2023-06-17T18:55:22.719Z,2.42
2023-06-17T18:57:49.976Z,2.90
2023-06-17T19:00:17.129Z,3.03
2023-06-17T19:02:44.117Z,2.80
2023-06-17T19:05:11.172Z,5.60
2023-06-17T19:07:38.102Z,3.78
2023-06-17T19:10:05.402Z,4.60
2023-06-17T19:12:32.388Z,4.10
2023-06-17T19:14:59.486Z,10.55
2023-06-17T19:17:26.789Z,5.03
2023-06-17T19:19:53.841Z,4.80
2023-06-17T19:22:20.876Z,12.45
2023-06-17T19:24:47.741Z,5.80
2023-06-17T19:27:14.743Z,3.00
2023-06-17T19:29:44.739Z,2.70
2023-06-17T19:32:11.811Z,3.00
2023-06-17T19:34:38.725Z,2.60
2023-06-17T19:37:05.640Z,3.05
2023-06-17T19:39:32.501Z,2.88
2023-06-17T19:41:59.399Z,2.70
2023-06-17T19:44:26.326Z,3.00
2023-06-17T19:46:53.198Z,2.95
2023-06-17T19:49:20.118Z,3.10
2023-06-17T19:51:47.024Z,2.80
2023-06-17T19:54:13.978Z,2.80
2023-06-17T19:56:40.859Z,3.08
2023-06-17T19:59:07.840Z,3.80
2023-06-17T20:01:34.774Z,3.10
2023-06-17T20:04:01.732Z,2.80
2023-06-17T20:06:28.658Z,3.22
2023-06-17T20:08:55.564Z,3.00
2023-06-17T20:11:22.464Z,3.20
2023-06-17T20:13:49.393Z,3.13
2023-06-17T20:16:16.320Z,3.10
2023-06-17T20:18:43.267Z,3.40
2023-06-17T20:21:10.194Z,3.80
2023-06-17T20:23:37.047Z,6.60
2023-06-17T20:26:04.251Z,9.90
2023-06-17T20:28:31.117Z,4.60
2023-06-17T20:30:58.348Z,3.70
2023-06-17T20:33:25.233Z,3.70
2023-06-17T20:35:52.176Z,3.55
2023-06-17T20:38:19.096Z,3.80
2023-06-17T20:40:45.982Z,3.70
2023-06-17T20:43:13.042Z,3.75
2023-06-17T20:45:39.943Z,3.50
2023-06-17T20:48:07.869Z,3.58
2023-06-17T20:50:35.144Z,7.30
2023-06-17T20:53:02.064Z,5.85
2023-06-17T20:55:29.146Z,4.97
2023-06-17T20:57:56.530Z,3.80
2023-06-17T21:00:23.726Z,3.67
2023-06-17T21:02:51.014Z,3.63
2023-06-17T21:05:18.108Z,3.40
2023-06-17T21:07:45.394Z,3.60
2023-06-17T21:10:12.918Z,3.50
2023-06-17T21:12:39.821Z,3.53
2023-06-17T21:15:07.909Z,3.90
2023-06-17T21:17:34.877Z,8.45
2023-06-17T21:20:02.127Z,17.17
2023-06-17T21:22:29.089Z,9.43
2023-06-17T21:24:55.964Z,8.57
2023-06-17T21:27:22.868Z,8.57
2023-06-17T21:29:49.845Z,8.57
2023-06-17T21:32:16.745Z,7.50
2023-06-17T21:34:43.637Z,6.07
2023-06-17T21:37:10.583Z,7.03
2023-06-17T21:39:37.493Z,9.50
2023-06-17T21:42:05.110Z,8.90
2023-06-17T21:44:34.188Z,7.47
2023-06-17T21:47:01.562Z,6.60
2023-06-17T21:49:28.441Z,6.45
2023-06-17T21:51:55.382Z,6.78
2023-06-17T21:54:22.479Z,6.85
2023-06-17T21:56:49.384Z,6.90
2023-06-17T21:59:16.313Z,7.00
2023-06-17T22:01:43.205Z,6.60
2023-06-17T22:04:10.095Z,6.63
2023-06-17T22:06:37.023Z,6.50
2023-06-17T22:09:04.037Z,6.10
2023-06-17T22:11:30.952Z,5.70
2023-06-17T22:13:57.894Z,6.20
2023-06-17T22:16:24.914Z,6.50
2023-06-17T22:18:51.976Z,5.50
2023-06-17T22:21:18.917Z,6.22
2023-06-17T22:23:45.854Z,5.10
2023-06-17T22:26:12.755Z,5.20
2023-06-17T22:28:39.734Z,5.10
2023-06-17T22:31:06.653Z,4.60
2023-06-17T22:33:33.536Z,4.40
2023-06-17T22:36:03.910Z,4.03
2023-06-17T22:38:31.147Z,3.80
2023-06-17T22:40:58.125Z,4.50
2023-06-17T22:43:25.040Z,4.75
2023-06-17T22:45:51.922Z,3.83
2023-06-17T22:48:18.873Z,4.10
2023-06-17T22:50:45.808Z,4.80
2023-06-17T22:53:13.020Z,6.10
2023-06-17T22:55:41.944Z,6.13
2023-06-17T22:58:11.725Z,6.00
2023-06-17T23:00:38.918Z,5.40
2023-06-17T23:03:06.011Z,4.20
2023-06-17T23:05:33.136Z,4.80
2023-06-17T23:08:00.045Z,5.43
2023-06-17T23:10:26.967Z,5.45
2023-06-17T23:12:53.879Z,4.72
2023-06-17T23:15:20.797Z,4.40
2023-06-17T23:17:47.778Z,4.20
2023-06-17T23:20:14.928Z,4.43
2023-06-17T23:22:41.846Z,3.88
2023-06-17T23:25:08.775Z,3.83
2023-06-17T23:27:35.705Z,4.18
2023-06-17T23:30:02.836Z,4.07
2023-06-17T23:32:29.834Z,3.90
2023-06-17T23:34:56.757Z,4.20
2023-06-17T23:37:23.697Z,4.10
2023-06-17T23:39:50.565Z,4.10
2023-06-17T23:42:17.690Z,4.53
2023-06-17T23:44:44.634Z,4.50
2023-06-17T23:47:17.639Z,4.75
2023-06-17T23:49:45.153Z,4.03
2023-06-17T23:52:12.109Z,4.15
2023-06-17T23:54:39.429Z,4.30
2023-06-17T23:57:06.857Z,4.60
2023-06-17T23:59:34.069Z,4.30
